• Join FlightAware (Why Join?)
  • Login
  • US Flag 
03:18AM EDT


 

Airport Tracker/Info


-or-


 

Live Flight TrackerFlight Track Log ✈ AWE3202 ✈ 19-Apr-2013 ✈ KDCA - KMHT

Flight Track Log - Related Links

Times and Time Zones

All times are in EDT time to prevent confusion due to time zone crossing. See the AWE3202 flight status page for this flight to view local times or setup timezone preferences in your user account.

Time Position Orientation Groundspeed Altitude Reporting Facility
EDT Latitude Longitude Course Direction KTS MPH feet Rate Location/Type
11:55PM 38.9000 -77.0667 339° North 166 191 2,200  Level Potomac TRACON
11:56PM 38.9333 -77.1167 311° West 226 260 4,100 2,040 Climbing Potomac TRACON
11:57PM 39.1724 -77.2084 330° Northwest  Level FlightAware Approximate
11:57PM 38.9667 -77.1833 303° West 261 300 6,100  Level Potomac TRACON
11:58PM 39.2870 -77.2631 337° Northwest  Level FlightAware Approximate
11:58PM 39.0000 -77.2833 293° West 288 331 8,800  Level Potomac TRACON
11:59PM 39.3993 -77.3273 333° Northwest  Level FlightAware Approximate
11:59PM 39.0333 -77.3667 297° West 261 300 12,700  Level Potomac TRACON
12:00AM 39.5121 -77.3894 339° North  Level FlightAware Approximate
12:00AM 39.1000 -77.4333 322° Northwest 292 336 15,200  Level Potomac TRACON
12:01AM 39.1667 -77.5000 322° Northwest 305 351 17,000 840 Climbing Potomac TRACON
12:02AM 39.2500 -77.5667 328° Northwest 369 425 17,000  Level Potomac TRACON
12:03AM 39.3336 -77.6442 324° Northwest 361 415 17,000  Level Washington Center
12:04AM 39.4178 -77.7219 324° Northwest 366 421 17,000 960 Level Washington Center
12:05AM 39.5100 -77.8025 326° Northwest 385 443 19,000 1,680 Climbing Washington Center
12:06AM 39.6003 -77.8833 325° Northwest 395 455 20,400 1,440 Climbing Washington Center
12:08AM 39.7781 -78.0411 326° Northwest 398 458 23,200 1,380 Climbing Cleveland Center
12:09AM 39.8678 -78.1378 320° Northwest 412 474 24,400 1,140 Climbing Cleveland Center
12:10AM 39.9597 -78.2403 320° Northwest 420 483 25,500 960 Climbing Cleveland Center
12:11AM 40.0969 -78.2244 North 426 490 26,400 1,200 Climbing Cleveland Center
12:13AM 40.3069 -77.8292 55° Northeast 491 565 29,600 1,020 Climbing New York Center
12:14AM 40.3806 -77.6758 58° Northeast 521 600 30,000 180 Climbing New York Center
12:15AM 40.4653 -77.5069 57° Northeast 537 618 30,000  Level New York Center
12:16AM 40.5503 -77.3319 57° Northeast 551 634 30,000  Level New York Center
12:17AM 40.6306 -77.1619 58° Northeast 551 634 30,000  Level New York Center
12:18AM 40.7125 -76.9889 58° Northeast 551 634 30,000  Level New York Center
12:19AM 40.7944 -76.8181 58° Northeast 551 634 30,000 -540 Level New York Center
12:20AM 40.8758 -76.6497 57° Northeast 546 628 29,000 -540 Descending New York Center
12:21AM 40.9528 -76.4831 59° Northeast 535 616 29,000  Level New York Center
12:22AM 41.0294 -76.3136 59° Northeast 535 616 29,000  Level New York Center
12:23AM 41.1106 -76.1411 58° Northeast 540 621 29,000  Level New York Center
12:24AM 41.1911 -75.9683 58° Northeast 540 621 29,000  Level New York Center
12:25AM 41.2736 -75.7950 58° Northeast 540 621 29,000  Level New York Center
12:26AM 41.3558 -75.6217 58° Northeast 540 621 29,000  Level New York Center
12:27AM 41.4428 -75.4231 60° Northeast 557 641 29,000  Level New York Center
12:28AM 41.5244 -75.2486 58° Northeast 557 641 29,000  Level New York Center
12:31AM 41.7169 -74.8153 59° Northeast 559 643 29,000  Level Boston Center
12:32AM 41.7956 -74.6372 59° Northeast 554 638 29,000  Level Boston Center
12:33AM 41.8739 -74.4642 59° Northeast 548 631 29,000  Level Boston Center
12:34AM 41.9431 -74.3103 59° Northeast 543 625 29,000  Level Boston Center
12:35AM 42.0189 -74.1336 60° Northeast 543 625 29,000  Level Boston Center
12:36AM 42.0964 -73.9567 59° Northeast 543 625 29,000  Level Boston Center
12:37AM 42.1717 -73.7792 60° Northeast 543 625 29,000  Level Boston Center
12:38AM 42.2592 -73.5761 60° Northeast 559 643 29,000  Level Boston Center
12:39AM 42.3211 -73.4314 60° Northeast 559 643 29,000  Level Boston Center
12:40AM 42.4125 -73.2106 61° Northeast 563 648 29,000 -900 Level Boston Center
12:41AM 42.4864 -73.0342 60° Northeast 557 641 27,300 -2,400 Descending Boston Center
12:42AM 42.5558 -72.8686 60° Northeast 529 609 24,300 -1,680 Descending Boston Center
12:43AM 42.6253 -72.7025 60° Northeast 507 583 24,000 -240 Descending Boston Center
12:44AM 42.6839 -72.5672 59° Northeast 488 562 23,900 -2,280 Descending Boston Center
12:45AM 42.7692 -72.3581 61° Northeast 478 550 19,000 -3,960 Descending Boston Center
12:46AM 42.8108 -72.1994 70° East 461 531 15,300 -2,760 Descending Boston Center
12:47AM 42.8353 -72.0467 78° East 422 486 13,500 -1,680 Descending Boston Center
12:48AM 42.8931 -71.9272 57° Northeast 378 435 12,000 -1,860 Descending Boston Center
12:49AM 42.9719 -71.8386 39° Northeast 360 414 9,800 -1,740 Descending Boston Center
12:50AM 43.0381 -71.7583 42° Northeast 338 389 8,600 -1,740 Descending Boston Center
12:51AM 43.1067 -71.7178 23° Northeast 298 343 6,400 -2,580 Descending Boston Center
12:52AM 43.1650 -71.6886 20° North 239 275 3,500 -2,160 Descending Boston Center
12:53AM 43.1831 -71.6086 73° East 206 237 2,100 -900 Descending Boston Center
12:53AM 43.1667 -71.5833 132° Southeast 205 236 2,200 60 Climbing KA90
12:54AM 43.1333 -71.5500 144° Southeast 183 211 2,200 -120 Level KA90
12:55AM 43.1033 -71.5358 161° South 165 190 2,100 -120 Descending Boston Center
12:56AM 43.0594 -71.5108 157° South 176 203 2,100 -180 Level Boston Center
12:57AM 43.0153 -71.4831 155° Southeast 171 197 1,800 -540 Descending Boston Center
12:58AM 42.9797 -71.4611 156° South 159 183 1,100 -720 Descending Boston Center
12:59AM 42.9483 -71.4417 156° South 152 175 400 -720 Descending Boston Center